Barkley Regional Airport
KPAH : now visible

Airfield :











YOU CAN JOIN US ON...

 
LOGIN :

Register | Disclaimer

   EN    FR    IT 

 









Legend :    VFR   Marginal VFR   IFR   Intensive IFR   Very Intensive IFR
Visi :
Ceiling :
>= 8 km
>= 3000ft
5 to 8 km
1000 to 3000 ft
1500m to 5 km
500 to 1000 ft
800 to 1500m
200 to 500 ft
< 800m
< 200 ft
Symbols :   Thunderstorms  Fog  Heavy snow  Heavy precipitations  Wind > 20 kt







- Airport Elevation : 410 ft
- IATA code : PAH


KPAH - Barkley Regional

CURRENT METAR :
  • 181653Z VRB04KT 10SM OVC065 18/16 A2972 RMK AO2 RAE05 SLP061 P0000 T01830161

EXPIRED METARs :
  • 181553Z 16007KT 4SM -RA BR SCT006 BKN060 OVC080 18/16 A2974 RMK AO2 SLP066 P0019 T01780161
  • 181542Z 17008G17KT 7SM -RA FEW008 SCT050 OVC075 17/16 A2976 RMK AO2 P0017 T01720156
  • 181533Z 16008KT 3SM -RA BR SCT050 BKN070 OVC090 17/16 A2975 RMK AO2 P0017 T01720156
  • 181507Z 21006KT 1 3/4SM +RA BR BKN055 OVC065 17/16 A2977 RMK AO2 LTG DSNT E-S PRESRR TS S MOV NE P0007 T01720156
  • 181453Z 17010G18KT 2 1/2SM VCTS RA BR BKN060 BKN080 OVC100 17/16 A2975 RMK AO2 LTG DSNT SE AND S TSE1357B31E43E52 SLP071 TS S MOV NE P0025 60057 T01670156 51005
  • 181443Z 17011KT 3SM -RA BR BKN060 BKN080 OVC100 17/15 A2975 RMK AO2 LTG DSNT NE AND S TSE1357B31E43 P0023 T01670150
  • 181435Z 17008KT 2SM TSRA BR SCT049 OVC075 17/15 A2974 RMK AO2 LTG DSNT N AND NE AND S TSE1357B31 TS OHD MOV NE P0022 T01670150
  • 181403Z 19005KT 1 1/2SM VCTS +RA BR FEW012 BKN044 OVC055 17/16 A2975 RMK AO2 LTG DSNT S-NW TSE1357 TS S MOV NE P0005 T01670156

TAF KPAH
Valid from the 18 at 15:00 until the 19 at 12:00 UTC


181516Z 1815/1912 20010G18KT 3SM RA BR BKN050 OVC080
TEMPO 1815/1817 2SM +RA BR
FM181700 19011G19KT 5SM -SHRA VCTS OVC021CB
FM182000 27008KT 4SM +SHRA VCTS OVC019CB
FM190000 36015KT 2SM +SHRA BR OVC012
FM190200 36017G25KT 3SM +SHRA BR OVC012
KZME FIR / North America



MET'MAP, your aeronautical weather chart ! - Copyright ORBIFLY December 2007 - Disclaimer

ORBIFLY MET'MAP TEAM :

Programming & Development : Alexandra Zaïnal
Concept & Development : Baudouin d'Aumeries
Co-Development & Prog : Marc-Olivier Méhu
Technical & hardware support : Manuel Goepfert

Contact : metmap@orbifly.com




SOURCES & CREDITS :

   NOAA       Earth
Advisory